sensor_id;sensor_type;location;lat;lon;timestamp;pressure;altitude;pressure_sealevel;temperature;humidity
3142;BME280;1581;51.568;6.998;2024-01-30T00:01:59;102003.09;;;9.82;100.00
3142;BME280;1581;51.568;6.998;2024-01-30T00:04:26;102007.50;;;9.73;100.00
3142;BME280;1581;51.568;6.998;2024-01-30T00:07:17;102005.44;;;9.67;100.00
3142;BME280;1581;51.568;6.998;2024-01-30T00:09:47;102002.78;;;9.67;100.00
3142;BME280;1581;51.568;6.998;2024-01-30T00:12:14;102006.19;;;9.60;100.00
3142;BME280;1581;51.568;6.998;2024-01-30T00:14:43;102004.13;;;9.54;100.00
3142;BME280;1581;51.568;6.998;2024-01-30T00:17:11;102009.91;;;9.49;100.00
3142;BME280;1581;51.568;6.998;2024-01-30T00:19:38;102000.34;;;9.39;100.00
3142;BME280;1581;51.568;6.998;2024-01-30T00:22:10;101999.34;;;9.40;100.00
3142;BME280;1581;51.568;6.998;2024-01-30T00:24:56;101988.47;;;9.34;100.00
3142;BME280;1581;51.568;6.998;2024-01-30T00:27:26;101999.56;;;9.29;100.00
3142;BME280;1581;51.568;6.998;2024-01-30T00:29:54;101995.22;;;9.28;100.00
3142;BME280;1581;51.568;6.998;2024-01-30T00:32:21;101996.81;;;9.21;100.00
3142;BME280;1581;51.568;6.998;2024-01-30T00:34:50;101993.75;;;9.16;100.00
3142;BME280;1581;51.568;6.998;2024-01-30T00:37:17;101991.25;;;9.15;100.00
3142;BME280;1581;51.568;6.998;2024-01-30T00:39:44;101987.97;;;9.03;100.00
3142;BME280;1581;51.568;6.998;2024-01-30T00:42:13;101997.31;;;9.07;100.00
3142;BME280;1581;51.568;6.998;2024-01-30T00:44:41;101992.44;;;9.03;100.00
3142;BME280;1581;51.568;6.998;2024-01-30T00:47:08;101996.25;;;9.00;100.00
3142;BME280;1581;51.568;6.998;2024-01-30T00:49:36;101994.41;;;9.01;100.00
3142;BME280;1581;51.568;6.998;2024-01-30T00:52:04;101984.38;;;8.95;100.00
3142;BME280;1581;51.568;6.998;2024-01-30T00:54:31;101991.38;;;8.96;100.00
3142;BME280;1581;51.568;6.998;2024-01-30T00:56:59;101989.97;;;8.92;100.00
3142;BME280;1581;51.568;6.998;2024-01-30T00:59:28;101989.59;;;8.87;100.00
3142;BME280;1581;51.568;6.998;2024-01-30T01:01:55;101988.63;;;8.88;100.00
3142;BME280;1581;51.568;6.998;2024-01-30T01:04:23;101986.53;;;8.82;100.00
3142;BME280;1581;51.568;6.998;2024-01-30T01:06:53;101991.84;;;8.82;100.00
3142;BME280;1581;51.568;6.998;2024-01-30T01:09:22;101985.56;;;8.73;100.00
3142;BME280;1581;51.568;6.998;2024-01-30T01:11:50;101987.25;;;8.74;100.00
3142;BME280;1581;51.568;6.998;2024-01-30T01:14:17;101988.38;;;8.72;100.00
3142;BME280;1581;51.568;6.998;2024-01-30T01:16:46;101983.69;;;8.66;100.00
3142;BME280;1581;51.568;6.998;2024-01-30T01:19:14;101986.88;;;8.69;100.00
3142;BME280;1581;51.568;6.998;2024-01-30T01:21:42;101989.09;;;8.74;100.00
3142;BME280;1581;51.568;6.998;2024-01-30T01:24:09;101988.38;;;8.72;100.00
3142;BME280;1581;51.568;6.998;2024-01-30T01:26:36;101990.34;;;8.70;100.00
3142;BME280;1581;51.568;6.998;2024-01-30T01:29:04;101989.63;;;8.77;100.00
3142;BME280;1581;51.568;6.998;2024-01-30T01:31:36;101992.28;;;8.77;100.00
3142;BME280;1581;51.568;6.998;2024-01-30T01:34:10;101989.91;;;8.74;100.00
3142;BME280;1581;51.568;6.998;2024-01-30T01:36:38;101981.94;;;8.74;100.00
3142;BME280;1581;51.568;6.998;2024-01-30T01:39:06;101985.28;;;8.76;100.00
3142;BME280;1581;51.568;6.998;2024-01-30T01:41:36;101986.69;;;8.80;100.00
3142;BME280;1581;51.568;6.998;2024-01-30T01:44:07;101979.00;;;8.77;100.00
3142;BME280;1581;51.568;6.998;2024-01-30T01:46:35;101976.97;;;8.89;100.00
3142;BME280;1581;51.568;6.998;2024-01-30T01:49:07;101973.94;;;8.84;100.00
3142;BME280;1581;51.568;6.998;2024-01-30T01:51:37;101971.09;;;8.95;100.00
3142;BME280;1581;51.568;6.998;2024-01-30T01:54:09;101973.56;;;8.96;100.00
3142;BME280;1581;51.568;6.998;2024-01-30T01:56:40;101967.72;;;8.93;100.00
3142;BME280;1581;51.568;6.998;2024-01-30T01:59:09;101972.78;;;8.86;100.00
3142;BME280;1581;51.568;6.998;2024-01-30T02:01:37;101969.75;;;8.81;100.00
3142;BME280;1581;51.568;6.998;2024-01-30T02:04:07;101964.09;;;8.94;100.00
3142;BME280;1581;51.568;6.998;2024-01-30T02:06:36;101963.25;;;8.93;100.00
3142;BME280;1581;51.568;6.998;2024-01-30T02:09:04;101962.25;;;8.94;100.00
3142;BME280;1581;51.568;6.998;2024-01-30T02:11:32;101966.34;;;8.89;100.00
3142;BME280;1581;51.568;6.998;2024-01-30T02:14:03;101963.69;;;8.89;100.00
3142;BME280;1581;51.568;6.998;2024-01-30T02:16:37;101960.66;;;8.84;100.00
3142;BME280;1581;51.568;6.998;2024-01-30T02:19:04;101971.28;;;8.84;100.00
3142;BME280;1581;51.568;6.998;2024-01-30T02:21:35;101953.28;;;8.78;100.00
3142;BME280;1581;51.568;6.998;2024-01-30T02:24:06;101955.78;;;8.79;100.00
3142;BME280;1581;51.568;6.998;2024-01-30T02:26:34;101944.88;;;8.73;100.00
3142;BME280;1581;51.568;6.998;2024-01-30T02:29:05;101948.69;;;8.70;100.00
3142;BME280;1581;51.568;6.998;2024-01-30T02:31:36;101945.50;;;8.67;100.00
3142;BME280;1581;51.568;6.998;2024-01-30T02:34:08;101943.66;;;8.67;100.00
3142;BME280;1581;51.568;6.998;2024-01-30T02:36:37;101939.41;;;8.74;100.00
3142;BME280;1581;51.568;6.998;2024-01-30T02:39:05;101944.41;;;8.87;100.00
3142;BME280;1581;51.568;6.998;2024-01-30T02:41:38;101935.28;;;8.89;100.00
3142;BME280;1581;51.568;6.998;2024-01-30T02:44:09;101937.41;;;8.86;100.00
3142;BME280;1581;51.568;6.998;2024-01-30T02:46:38;101932.69;;;8.80;100.00
3142;BME280;1581;51.568;6.998;2024-01-30T02:49:06;101934.66;;;8.78;100.00
3142;BME280;1581;51.568;6.998;2024-01-30T02:51:34;101933.53;;;8.80;100.00
3142;BME280;1581;51.568;6.998;2024-01-30T02:54:03;101929.94;;;8.72;100.00
3142;BME280;1581;51.568;6.998;2024-01-30T02:56:30;101923.19;;;8.77;100.00
3142;BME280;1581;51.568;6.998;2024-01-30T02:58:58;101921.38;;;8.78;100.00
3142;BME280;1581;51.568;6.998;2024-01-30T03:01:28;101914.75;;;8.82;100.00
3142;BME280;1581;51.568;6.998;2024-01-30T03:03:55;101916.47;;;8.73;100.00
3142;BME280;1581;51.568;6.998;2024-01-30T03:06:28;101913.69;;;8.75;100.00
3142;BME280;1581;51.568;6.998;2024-01-30T03:09:06;101911.72;;;8.77;100.00
3142;BME280;1581;51.568;6.998;2024-01-30T03:11:35;101917.59;;;8.80;100.00
3142;BME280;1581;51.568;6.998;2024-01-30T03:14:06;101918.28;;;8.82;100.00
3142;BME280;1581;51.568;6.998;2024-01-30T03:16:38;101906.78;;;8.82;100.00
3142;BME280;1581;51.568;6.998;2024-01-30T03:19:08;101910.88;;;8.76;100.00
3142;BME280;1581;51.568;6.998;2024-01-30T03:21:36;101914.88;;;8.63;100.00
3142;BME280;1581;51.568;6.998;2024-01-30T03:24:06;101908.41;;;8.65;100.00
3142;BME280;1581;51.568;6.998;2024-01-30T03:26:33;101916.81;;;8.70;100.00
3142;BME280;1581;51.568;6.998;2024-01-30T03:29:00;101910.06;;;8.76;100.00
3142;BME280;1581;51.568;6.998;2024-01-30T03:31:28;101909.91;;;8.77;100.00
3142;BME280;1581;51.568;6.998;2024-01-30T03:33:55;101903.19;;;8.73;100.00
3142;BME280;1581;51.568;6.998;2024-01-30T03:36:23;101906.53;;;8.75;100.00
3142;BME280;1581;51.568;6.998;2024-01-30T03:38:50;101902.41;;;8.90;100.00
3142;BME280;1581;51.568;6.998;2024-01-30T03:41:19;101903.41;;;8.89;100.00
3142;BME280;1581;51.568;6.998;2024-01-30T03:43:47;101899.34;;;8.85;100.00
3142;BME280;1581;51.568;6.998;2024-01-30T03:46:14;101896.56;;;8.87;100.00
3142;BME280;1581;51.568;6.998;2024-01-30T03:48:42;101893.06;;;8.86;100.00
3142;BME280;1581;51.568;6.998;2024-01-30T03:51:09;101887.38;;;8.81;100.00
3142;BME280;1581;51.568;6.998;2024-01-30T03:53:40;101882.34;;;8.78;100.00
3142;BME280;1581;51.568;6.998;2024-01-30T03:56:08;101886.50;;;8.81;100.00
3142;BME280;1581;51.568;6.998;2024-01-30T03:58:37;101891.03;;;8.71;100.00
3142;BME280;1581;51.568;6.998;2024-01-30T04:01:04;101891.38;;;8.68;100.00
3142;BME280;1581;51.568;6.998;2024-01-30T04:03:31;101878.50;;;8.63;100.00
3142;BME280;1581;51.568;6.998;2024-01-30T04:05:59;101885.81;;;8.61;100.00
3142;BME280;1581;51.568;6.998;2024-01-30T04:08:26;101884.66;;;8.64;100.00
3142;BME280;1581;51.568;6.998;2024-01-30T04:10:54;101881.22;;;8.54;100.00
3142;BME280;1581;51.568;6.998;2024-01-30T04:13:21;101881.84;;;8.48;100.00
3142;BME280;1581;51.568;6.998;2024-01-30T04:15:50;101878.03;;;8.51;100.00
3142;BME280;1581;51.568;6.998;2024-01-30T04:18:18;101873.00;;;8.48;100.00
3142;BME280;1581;51.568;6.998;2024-01-30T04:21:10;101875.38;;;8.51;100.00
3142;BME280;1581;51.568;6.998;2024-01-30T04:26:45;101870.09;;;8.41;100.00
3142;BME280;1581;51.568;6.998;2024-01-30T04:29:22;101858.13;;;8.37;100.00
3142;BME280;1581;51.568;6.998;2024-01-30T04:39:36;101866.03;;;8.47;100.00
3142;BME280;1581;51.568;6.998;2024-01-30T04:42:04;101870.06;;;8.51;100.00
3142;BME280;1581;51.568;6.998;2024-01-30T04:44:32;101879.97;;;8.58;100.00
3142;BME280;1581;51.568;6.998;2024-01-30T04:46:59;101869.63;;;8.55;100.00
3142;BME280;1581;51.568;6.998;2024-01-30T04:49:27;101865.81;;;8.57;100.00
3142;BME280;1581;51.568;6.998;2024-01-30T04:51:55;101866.34;;;8.61;100.00
3142;BME280;1581;51.568;6.998;2024-01-30T04:54:22;101860.00;;;8.71;100.00
3142;BME280;1581;51.568;6.998;2024-01-30T04:56:51;101859.03;;;8.72;100.00
3142;BME280;1581;51.568;6.998;2024-01-30T04:59:19;101858.13;;;8.81;100.00
3142;BME280;1581;51.568;6.998;2024-01-30T05:01:46;101855.47;;;8.81;100.00
3142;BME280;1581;51.568;6.998;2024-01-30T05:04:14;101854.09;;;8.77;100.00
3142;BME280;1581;51.568;6.998;2024-01-30T05:06:41;101862.34;;;8.74;100.00
3142;BME280;1581;51.568;6.998;2024-01-30T05:09:08;101863.66;;;8.70;100.00
3142;BME280;1581;51.568;6.998;2024-01-30T05:11:37;101861.00;;;8.70;100.00
3142;BME280;1581;51.568;6.998;2024-01-30T05:14:07;101855.28;;;8.65;100.00
3142;BME280;1581;51.568;6.998;2024-01-30T05:16:34;101855.53;;;8.72;100.00
3142;BME280;1581;51.568;6.998;2024-01-30T05:19:02;101854.09;;;8.77;100.00
3142;BME280;1581;51.568;6.998;2024-01-30T05:21:29;101862.31;;;8.84;100.00
3142;BME280;1581;51.568;6.998;2024-01-30T05:23:56;101860.19;;;8.87;100.00
3142;BME280;1581;51.568;6.998;2024-01-30T05:26:24;101859.34;;;8.87;100.00
3142;BME280;1581;51.568;6.998;2024-01-30T05:28:52;101861.44;;;8.83;100.00
3142;BME280;1581;51.568;6.998;2024-01-30T05:31:21;101857.97;;;8.83;100.00
3142;BME280;1581;51.568;6.998;2024-01-30T05:33:48;101859.63;;;8.84;100.00
3142;BME280;1581;51.568;6.998;2024-01-30T05:36:15;101855.31;;;8.83;100.00
3142;BME280;1581;51.568;6.998;2024-01-30T05:38:43;101855.75;;;8.78;100.00
3142;BME280;1581;51.568;6.998;2024-01-30T05:41:10;101860.53;;;8.75;100.00
3142;BME280;1581;51.568;6.998;2024-01-30T05:43:37;101855.16;;;8.84;100.00
3142;BME280;1581;51.568;6.998;2024-01-30T05:46:06;101856.84;;;9.03;100.00
3142;BME280;1581;51.568;6.998;2024-01-30T05:48:35;101850.47;;;8.96;100.00
3142;BME280;1581;51.568;6.998;2024-01-30T05:51:02;101849.25;;;8.90;100.00
3142;BME280;1581;51.568;6.998;2024-01-30T05:53:30;101839.38;;;9.00;100.00
3142;BME280;1581;51.568;6.998;2024-01-30T05:55:57;101845.69;;;8.99;100.00
3142;BME280;1581;51.568;6.998;2024-01-30T05:58:24;101850.47;;;8.96;100.00
3142;BME280;1581;51.568;6.998;2024-01-30T06:00:52;101851.28;;;8.96;100.00
3142;BME280;1581;51.568;6.998;2024-01-30T06:03:19;101844.53;;;9.02;100.00
3142;BME280;1581;51.568;6.998;2024-01-30T06:05:48;101843.56;;;9.03;100.00
3142;BME280;1581;51.568;6.998;2024-01-30T06:08:15;101850.59;;;9.12;100.00
3142;BME280;1581;51.568;6.998;2024-01-30T06:10:43;101850.31;;;9.15;100.00
3142;BME280;1581;51.568;6.998;2024-01-30T06:13:10;101845.16;;;9.13;100.00
3142;BME280;1581;51.568;6.998;2024-01-30T06:15:37;101852.13;;;9.14;100.00
3142;BME280;1581;51.568;6.998;2024-01-30T06:18:05;101856.31;;;9.17;100.00
3142;BME280;1581;51.568;6.998;2024-01-30T06:20:32;101853.50;;;9.18;100.00
3142;BME280;1581;51.568;6.998;2024-01-30T06:23:01;101849.41;;;9.24;100.00
3142;BME280;1581;51.568;6.998;2024-01-30T06:25:29;101853.25;;;9.29;100.00
3142;BME280;1581;51.568;6.998;2024-01-30T06:27:56;101862.91;;;9.30;100.00
3142;BME280;1581;51.568;6.998;2024-01-30T06:30:23;101860.94;;;9.32;100.00
3142;BME280;1581;51.568;6.998;2024-01-30T06:32:50;101854.25;;;9.28;100.00
3142;BME280;1581;51.568;6.998;2024-01-30T06:35:18;101855.00;;;9.38;100.00
3142;BME280;1581;51.568;6.998;2024-01-30T06:37:46;101851.06;;;9.42;100.00
3142;BME280;1581;51.568;6.998;2024-01-30T06:40:15;101847.25;;;9.44;100.00
3142;BME280;1581;51.568;6.998;2024-01-30T06:42:42;101846.47;;;9.52;100.00
3142;BME280;1581;51.568;6.998;2024-01-30T06:45:10;101845.03;;;9.57;100.00
3142;BME280;1581;51.568;6.998;2024-01-30T06:47:37;101833.09;;;9.69;100.00
3142;BME280;1581;51.568;6.998;2024-01-30T06:50:06;101849.28;;;9.76;100.00
3142;BME280;1581;51.568;6.998;2024-01-30T06:52:33;101844.81;;;9.76;100.00
3142;BME280;1581;51.568;6.998;2024-01-30T06:55:01;101841.34;;;9.84;100.00
3142;BME280;1581;51.568;6.998;2024-01-30T06:57:30;101839.06;;;9.89;100.00
3142;BME280;1581;51.568;6.998;2024-01-30T06:59:57;101849.25;;;9.93;100.00
3142;BME280;1581;51.568;6.998;2024-01-30T07:02:25;101848.63;;;9.99;100.00
3142;BME280;1581;51.568;6.998;2024-01-30T07:04:52;101854.25;;;9.96;100.00
3142;BME280;1581;51.568;6.998;2024-01-30T07:07:20;101851.09;;;9.93;100.00
3142;BME280;1581;51.568;6.998;2024-01-30T07:09:47;101860.28;;;9.98;100.00
3142;BME280;1581;51.568;6.998;2024-01-30T07:12:18;101862.38;;;9.95;100.00
3142;BME280;1581;51.568;6.998;2024-01-30T07:14:47;101867.19;;;9.91;100.00
3142;BME280;1581;51.568;6.998;2024-01-30T07:17:14;101868.63;;;10.03;100.00
3142;BME280;1581;51.568;6.998;2024-01-30T07:19:42;101863.63;;;10.00;100.00
3142;BME280;1581;51.568;6.998;2024-01-30T07:22:09;101873.53;;;10.16;100.00
3142;BME280;1581;51.568;6.998;2024-01-30T07:24:41;101870.25;;;10.22;100.00
3142;BME280;1581;51.568;6.998;2024-01-30T07:27:10;101873.38;;;10.17;100.00
3142;BME280;1581;51.568;6.998;2024-01-30T07:29:38;101866.72;;;10.21;100.00
3142;BME280;1581;51.568;6.998;2024-01-30T07:32:06;101874.09;;;10.27;100.00
3142;BME280;1581;51.568;6.998;2024-01-30T07:34:34;101874.59;;;10.23;100.00
3142;BME280;1581;51.568;6.998;2024-01-30T07:37:02;101868.59;;;10.28;100.00
3142;BME280;1581;51.568;6.998;2024-01-30T07:39:30;101871.31;;;10.36;100.00
3142;BME280;1581;51.568;6.998;2024-01-30T07:41:57;101866.16;;;10.35;100.00
3142;BME280;1581;51.568;6.998;2024-01-30T07:44:25;101870.47;;;10.36;100.00
3142;BME280;1581;51.568;6.998;2024-01-30T07:46:53;101874.16;;;10.43;100.00
3142;BME280;1581;51.568;6.998;2024-01-30T07:49:22;101882.66;;;10.46;100.00
3142;BME280;1581;51.568;6.998;2024-01-30T07:51:52;101881.00;;;10.45;100.00
3142;BME280;1581;51.568;6.998;2024-01-30T07:54:24;101894.97;;;10.39;100.00
3142;BME280;1581;51.568;6.998;2024-01-30T07:56:51;101897.16;;;10.44;100.00
3142;BME280;1581;51.568;6.998;2024-01-30T07:59:19;101895.66;;;10.41;100.00
3142;BME280;1581;51.568;6.998;2024-01-30T08:01:51;101900.63;;;10.44;100.00
3142;BME280;1581;51.568;6.998;2024-01-30T08:04:18;101899.50;;;10.47;100.00
3142;BME280;1581;51.568;6.998;2024-01-30T08:06:47;101896.69;;;10.48;100.00
3142;BME280;1581;51.568;6.998;2024-01-30T08:09:14;101899.66;;;10.45;100.00
3142;BME280;1581;51.568;6.998;2024-01-30T08:11:51;101901.28;;;10.38;100.00
3142;BME280;1581;51.568;6.998;2024-01-30T08:14:18;101904.47;;;10.42;100.00
3142;BME280;1581;51.568;6.998;2024-01-30T08:16:58;101902.69;;;10.50;100.00
3142;BME280;1581;51.568;6.998;2024-01-30T08:19:25;101905.19;;;10.52;100.00
3142;BME280;1581;51.568;6.998;2024-01-30T08:21:54;101894.34;;;10.53;100.00
3142;BME280;1581;51.568;6.998;2024-01-30T08:24:21;101905.69;;;10.55;100.00
3142;BME280;1581;51.568;6.998;2024-01-30T08:26:49;101907.38;;;10.56;100.00
3142;BME280;1581;51.568;6.998;2024-01-30T08:29:16;101911.41;;;10.68;100.00
3142;BME280;1581;51.568;6.998;2024-01-30T08:31:44;101915.94;;;10.68;100.00
3142;BME280;1581;51.568;6.998;2024-01-30T08:34:15;101916.75;;;10.68;100.00
3142;BME280;1581;51.568;6.998;2024-01-30T08:36:42;101911.63;;;10.75;100.00
3142;BME280;1581;51.568;6.998;2024-01-30T08:39:12;101914.47;;;10.81;100.00
3142;BME280;1581;51.568;6.998;2024-01-30T08:41:40;101915.13;;;10.83;100.00
3142;BME280;1581;51.568;6.998;2024-01-30T08:44:07;101915.50;;;10.96;100.00
3142;BME280;1581;51.568;6.998;2024-01-30T08:46:37;101913.38;;;11.08;100.00
3142;BME280;1581;51.568;6.998;2024-01-30T08:49:04;101921.03;;;11.11;100.00
3142;BME280;1581;51.568;6.998;2024-01-30T08:51:31;101917.06;;;11.14;100.00
3142;BME280;1581;51.568;6.998;2024-01-30T08:53:59;101921.03;;;11.11;100.00
3142;BME280;1581;51.568;6.998;2024-01-30T08:56:28;101913.53;;;11.06;100.00
3142;BME280;1581;51.568;6.998;2024-01-30T08:58:56;101916.88;;;11.16;100.00
3142;BME280;1581;51.568;6.998;2024-01-30T09:01:23;101918.19;;;11.04;100.00
3142;BME280;1581;51.568;6.998;2024-01-30T09:03:50;101926.75;;;11.23;100.00
3142;BME280;1581;51.568;6.998;2024-01-30T09:06:20;101929.59;;;11.30;100.00
3142;BME280;1581;51.568;6.998;2024-01-30T09:08:47;101926.56;;;11.33;100.00
3142;BME280;1581;51.568;6.998;2024-01-30T09:11:15;101931.09;;;11.32;100.00
3142;BME280;1581;51.568;6.998;2024-01-30T09:13:47;101928.56;;;11.15;100.00
3142;BME280;1581;51.568;6.998;2024-01-30T09:16:14;101940.91;;;11.24;100.00
3142;BME280;1581;51.568;6.998;2024-01-30T09:18:43;101941.25;;;11.29;100.00
3142;BME280;1581;51.568;6.998;2024-01-30T09:21:10;101944.94;;;11.28;100.00
3142;BME280;1581;51.568;6.998;2024-01-30T09:23:38;101953.78;;;11.36;100.00
3142;BME280;1581;51.568;6.998;2024-01-30T09:26:09;101959.97;;;11.37;100.00
3142;BME280;1581;51.568;6.998;2024-01-30T09:28:38;101955.94;;;11.33;100.00
3142;BME280;1581;51.568;6.998;2024-01-30T09:31:11;101965.47;;;11.43;100.00
3142;BME280;1581;51.568;6.998;2024-01-30T09:33:41;101958.47;;;11.42;100.00
3142;BME280;1581;51.568;6.998;2024-01-30T09:36:10;101958.47;;;11.50;100.00
3142;BME280;1581;51.568;6.998;2024-01-30T09:38:37;101957.69;;;11.58;100.00
3142;BME280;1581;51.568;6.998;2024-01-30T09:41:10;101951.53;;;11.65;100.00
3142;BME280;1581;51.568;6.998;2024-01-30T09:43:38;101950.84;;;11.71;100.00
3142;BME280;1581;51.568;6.998;2024-01-30T09:46:13;101948.34;;;11.78;100.00
3142;BME280;1581;51.568;6.998;2024-01-30T09:48:42;101940.50;;;11.84;100.00
3142;BME280;1581;51.568;6.998;2024-01-30T09:51:10;101939.00;;;11.90;100.00
3142;BME280;1581;51.568;6.998;2024-01-30T09:53:39;101940.97;;;11.96;100.00
3142;BME280;1581;51.568;6.998;2024-01-30T09:56:10;101939.97;;;12.04;100.00
3142;BME280;1581;51.568;6.998;2024-01-30T09:58:38;101943.50;;;12.05;100.00
3142;BME280;1581;51.568;6.998;2024-01-30T10:01:16;101949.31;;;12.16;100.00
3142;BME280;1581;51.568;6.998;2024-01-30T10:03:49;101944.94;;;12.31;100.00
3142;BME280;1581;51.568;6.998;2024-01-30T10:06:18;101945.59;;;12.41;100.00
3142;BME280;1581;51.568;6.998;2024-01-30T10:08:48;101946.72;;;12.55;100.00
3142;BME280;1581;51.568;6.998;2024-01-30T10:11:22;101953.38;;;12.59;100.00
3142;BME280;1581;51.568;6.998;2024-01-30T10:13:50;101957.22;;;12.56;100.00
3142;BME280;1581;51.568;6.998;2024-01-30T10:16:24;101947.50;;;12.63;100.00
3142;BME280;1581;51.568;6.998;2024-01-30T10:18:55;101944.16;;;12.69;100.00
3142;BME280;1581;51.568;6.998;2024-01-30T10:21:24;101952.81;;;12.79;100.00
3142;BME280;1581;51.568;6.998;2024-01-30T10:23:54;101952.09;;;12.85;100.00
3142;BME280;1581;51.568;6.998;2024-01-30T10:26:27;101948.94;;;12.89;100.00
3142;BME280;1581;51.568;6.998;2024-01-30T10:28:55;101947.81;;;12.76;100.00
3142;BME280;1581;51.568;6.998;2024-01-30T10:31:30;101959.44;;;12.99;100.00
3142;BME280;1581;51.568;6.998;2024-01-30T10:33:57;101960.31;;;12.91;100.00
3142;BME280;1581;51.568;6.998;2024-01-30T10:36:29;101955.28;;;12.96;100.00
3142;BME280;1581;51.568;6.998;2024-01-30T10:38:59;101965.09;;;13.04;100.00
3142;BME280;1581;51.568;6.998;2024-01-30T10:41:43;101957.09;;;12.96;100.00
3142;BME280;1581;51.568;6.998;2024-01-30T10:44:11;101954.44;;;12.96;100.00
3142;BME280;1581;51.568;6.998;2024-01-30T10:46:43;101961.16;;;12.92;100.00
3142;BME280;1581;51.568;6.998;2024-01-30T10:49:14;101959.13;;;12.94;100.00
3142;BME280;1581;51.568;6.998;2024-01-30T10:51:42;101964.66;;;12.85;100.00
3142;BME280;1581;51.568;6.998;2024-01-30T10:54:14;101972.88;;;12.91;100.00
3142;BME280;1581;51.568;6.998;2024-01-30T10:56:43;101967.66;;;12.89;100.00
3142;BME280;1581;51.568;6.998;2024-01-30T10:59:11;101973.34;;;12.87;100.00
3142;BME280;1581;51.568;6.998;2024-01-30T11:01:41;101971.34;;;12.96;100.00
3142;BME280;1581;51.568;6.998;2024-01-30T11:04:09;101969.28;;;12.98;100.00
3142;BME280;1581;51.568;6.998;2024-01-30T11:06:41;101966.31;;;12.93;100.00
3142;BME280;1581;51.568;6.998;2024-01-30T11:09:11;101962.41;;;13.04;100.00
3142;BME280;1581;51.568;6.998;2024-01-30T11:11:50;101953.75;;;12.94;100.00
3142;BME280;1581;51.568;6.998;2024-01-30T11:14:23;101959.09;;;13.02;100.00
3142;BME280;1581;51.568;6.998;2024-01-30T11:16:57;101955.38;;;13.11;100.00
3142;BME280;1581;51.568;6.998;2024-01-30T11:19:31;101963.88;;;13.14;100.00
3142;BME280;1581;51.568;6.998;2024-01-30T11:22:00;101974.00;;;12.96;100.00
3142;BME280;1581;51.568;6.998;2024-01-30T11:24:48;101972.28;;;13.03;100.00
3142;BME280;1581;51.568;6.998;2024-01-30T11:27:16;101973.13;;;13.04;100.00
3142;BME280;1581;51.568;6.998;2024-01-30T11:29:43;101970.34;;;12.97;100.00
3142;BME280;1581;51.568;6.998;2024-01-30T11:32:24;101974.78;;;13.05;100.00
3142;BME280;1581;51.568;6.998;2024-01-30T11:34:51;101967.44;;;13.07;100.00
3142;BME280;1581;51.568;6.998;2024-01-30T11:37:20;101979.69;;;12.93;100.00
3142;BME280;1581;51.568;6.998;2024-01-30T11:39:48;101986.38;;;12.97;100.00
3142;BME280;1581;51.568;6.998;2024-01-30T11:42:17;101970.09;;;13.07;100.00
3142;BME280;1581;51.568;6.998;2024-01-30T11:44:47;101982.81;;;13.05;100.00
3142;BME280;1581;51.568;6.998;2024-01-30T11:47:14;101982.53;;;13.00;100.00
3142;BME280;1581;51.568;6.998;2024-01-30T11:49:44;101974.78;;;13.05;100.00
3142;BME280;1581;51.568;6.998;2024-01-30T11:52:12;101980.72;;;13.23;100.00
3142;BME280;1581;51.568;6.998;2024-01-30T11:54:40;101978.22;;;12.91;100.00
3142;BME280;1581;51.568;6.998;2024-01-30T11:57:08;101974.31;;;13.01;100.00
3142;BME280;1581;51.568;6.998;2024-01-30T11:59:36;101978.69;;;12.94;100.00
3142;BME280;1581;51.568;6.998;2024-01-30T12:02:04;101974.34;;;12.86;100.00
3142;BME280;1581;51.568;6.998;2024-01-30T12:04:31;101968.28;;;12.99;100.00
3142;BME280;1581;51.568;6.998;2024-01-30T12:07:00;101966.31;;;12.93;100.00
3142;BME280;1581;51.568;6.998;2024-01-30T12:09:28;101978.69;;;12.94;100.00
3142;BME280;1581;51.568;6.998;2024-01-30T12:11:55;101965.13;;;12.96;100.00
3142;BME280;1581;51.568;6.998;2024-01-30T12:14:22;101964.97;;;12.97;100.00
3142;BME280;1581;51.568;6.998;2024-01-30T12:16:51;101962.13;;;12.99;100.00
3142;BME280;1581;51.568;6.998;2024-01-30T12:19:22;101961.78;;;12.94;100.00
3142;BME280;1581;51.568;6.998;2024-01-30T12:21:55;101975.34;;;12.92;100.00
3142;BME280;1581;51.568;6.998;2024-01-30T12:24:26;101970.16;;;12.83;100.00
3142;BME280;1581;51.568;6.998;2024-01-30T12:26:57;101977.69;;;12.95;100.00
3142;BME280;1581;51.568;6.998;2024-01-30T12:29:26;101979.88;;;12.92;100.00
3142;BME280;1581;51.568;6.998;2024-01-30T12:31:53;101979.53;;;12.87;100.00
3142;BME280;1581;51.568;6.998;2024-01-30T12:34:22;101975.50;;;12.99;100.00
3142;BME280;1581;51.568;6.998;2024-01-30T12:36:49;101977.84;;;12.94;100.00
3142;BME280;1581;51.568;6.998;2024-01-30T12:39:16;101973.34;;;12.94;100.00
3142;BME280;1581;51.568;6.998;2024-01-30T12:41:46;101981.00;;;13.05;100.00
3142;BME280;1581;51.568;6.998;2024-01-30T12:44:14;101976.50;;;12.98;100.00
3142;BME280;1581;51.568;6.998;2024-01-30T12:46:42;101969.81;;;12.94;100.00
3142;BME280;1581;51.568;6.998;2024-01-30T12:49:09;101964.44;;;13.02;100.00
3142;BME280;1581;51.568;6.998;2024-01-30T12:51:37;101974.97;;;13.03;100.00
3142;BME280;1581;51.568;6.998;2024-01-30T12:54:06;101967.50;;;12.91;100.00
3142;BME280;1581;51.568;6.998;2024-01-30T12:56:33;101963.47;;;12.95;100.00
3142;BME280;1581;51.568;6.998;2024-01-30T12:59:02;101977.31;;;13.06;100.00
3142;BME280;1581;51.568;6.998;2024-01-30T13:01:29;101970.28;;;13.05;100.00
3142;BME280;1581;51.568;6.998;2024-01-30T13:03:57;101973.69;;;12.91;100.00
3142;BME280;1581;51.568;6.998;2024-01-30T13:06:24;101976.22;;;12.77;100.00
3142;BME280;1581;51.568;6.998;2024-01-30T13:08:52;101974.03;;;12.81;100.00
3142;BME280;1581;51.568;6.998;2024-01-30T13:11:19;101979.06;;;12.76;100.00
3142;BME280;1581;51.568;6.998;2024-01-30T13:13:46;101977.06;;;12.78;100.00
3142;BME280;1581;51.568;6.998;2024-01-30T13:16:15;101978.91;;;12.77;100.00
3142;BME280;1581;51.568;6.998;2024-01-30T13:18:45;101976.22;;;12.77;100.00
3142;BME280;1581;51.568;6.998;2024-01-30T13:21:17;101984.56;;;12.82;100.00
3142;BME280;1581;51.568;6.998;2024-01-30T13:23:47;101985.72;;;12.88;100.00
3142;BME280;1581;51.568;6.998;2024-01-30T13:26:18;101983.25;;;12.78;100.00